Meteo Giornale » Osservazioni meteo Stati Uniti (USA) » Hawthorne
ore: 12:30 - Osservazioni Meteo Hawthorne
Lat. 38° 33' N Lon. 118° 38' W Alt. 1285 metri s.l.m.
27 °C
Sereno
Temp. 24 Ore
14 °C
30 °C
Nord-Ovest
9.3 Km/h
Dew point -6 °C
Umidità 10 %
Visibilità 10 Km
Il sole sorge alle ore 06:23
Il sole tramonta alle ore 19:26
| Data e Ora | Cielo e Fenomeni | T °C | DP °C | Um. % | Pres. hPa | Vis. km | Vento km/h | |
|---|---|---|---|---|---|---|---|---|
| Oggi h: 12:30 | Sereno | 27 | -6 | 10 | 1015 | 10 | NO 9.3 | |
| Oggi h: 12:10 | Sereno | 27 | -6 | 10 | 1015 | 10 | N 0 | |
| Oggi h: 11:55 | Sereno | 26 | -6 | 11 | 1015 | 10 | O/NO 9.3 | |
| Oggi h: 11:30 | Sereno | 26 | -6 | 11 | 1016 | 10 | N 11.1 | |
| Oggi h: 11:15 | Sereno | 25 | -5 | 13 | 1016 | 10 | N 11.1 | |
| Oggi h: 10:50 | Sereno | 24 | -4 | 15 | 1016 | 10 | N 7.4 | |
| Oggi h: 10:30 | Sereno | 24 | -3 | 16 | 1016 | 10 | N/NO 9.3 | |
| Oggi h: 10:10 | Sereno | 23 | -1 | 20 | 1016 | 10 | O/NO 7.4 | |
| Oggi h: 09:50 | Sereno | 22 | -1 | 21 | 1016 | 10 | N/NO 7.4 | |
| Oggi h: 09:30 | Sereno | 21 | 0 | 24 | 1016 | 10 | N/NO 7.4 | |
| Oggi h: 09:10 | Sereno | 21 | 0 | 24 | 1016 | 10 | N 0 | |
| Oggi h: 08:50 | Sereno | 20 | -1 | 24 | 1016 | 10 | N 5.5 | |
| Oggi h: 08:30 | Sereno | 20 | 1 | 28 | 1016 | 10 | O/NO 7.4 | |
| Oggi h: 08:10 | Sereno | 19 | 1 | 29 | 1016 | 10 | N 0 | |
| Oggi h: 07:50 | Sereno | 19 | 1 | 29 | 1016 | 10 | N 0 | |
| Oggi h: 07:35 | Sereno | 18 | 1 | 31 | 1016 | 10 | N 0 | |
| Oggi h: 07:10 | Sereno | 16 | 0 | 33 | 1016 | 10 | O/SO 7.4 | |
| Oggi h: 06:55 | Sereno | 16 | 1 | 36 | 1016 | 10 | SO 7.4 | |
| Oggi h: 06:30 | Sereno | 16 | 0 | 33 | 1016 | 10 | O/SO 9.3 | |
| Oggi h: 06:15 | Sereno | 15 | 0 | 35 | 1016 | 10 | N 0 | |
| Oggi h: 05:50 | Sereno | 14 | -1 | 35 | 1016 | 10 | N 0 | |
| Oggi h: 05:30 | Sereno | 15 | 0 | 35 | 1016 | 10 | N 0 | |
| Oggi h: 05:15 | Sereno | 16 | -1 | 31 | 1015 | 10 | O/SO 9.3 | |
| Oggi h: 04:55 | Sereno | 16 | 0 | 33 | 1015 | 10 | S/SO 9.3 | |
| Oggi h: 04:30 | Sereno | 16 | -1 | 31 | 1016 | 10 | S 9.3 | |
| Oggi h: 04:10 | Sereno | 16 | 1 | 36 | 1016 | 10 | S 9.3 | |
| Oggi h: 03:50 | Sereno | 17 | -1 | 29 | 1016 | 10 | N 5.5 | |
| Oggi h: 03:30 | Sereno | 16 | 0 | 33 | 1015 | 10 | N 5.5 | |
| Oggi h: 03:10 | Sereno | 16 | 0 | 33 | 1015 | 10 | N 0 | |
| Oggi h: 02:50 | Sereno | 18 | -1 | 27 | 1015 | 10 | N 0 | |
| Oggi h: 02:30 | Sereno | 18 | -1 | 27 | 1016 | 10 | N 0 | |
| Oggi h: 02:10 | Sereno | 17 | -1 | 29 | 1015 | 10 | N 0 | |
| Oggi h: 01:50 | Sereno | 18 | 0 | 29 | 1016 | 10 | N 5.5 | |
| Oggi h: 01:35 | Sereno | 18 | -2 | 25 | 1016 | 10 | S/SO 7.4 | |
| Oggi h: 01:10 | Sereno | 19 | 1 | 29 | 1016 | 10 | N 0 | |
| Oggi h: 00:55 | Sereno | 20 | -1 | 24 | 1016 | 10 | N 0 | |
| Oggi h: 00:30 | Sereno | 20 | -1 | 24 | 1016 | 10 | N 5.5 | |
| Oggi h: 00:10 | Sereno | 21 | -2 | 21 | 1016 | 10 | N 0 | |
| Ieri h: 23:50 | Sereno | 22 | -3 | 18 | 1016 | 10 | N 0 | |
| Ieri h: 23:30 | Sereno | 21 | -3 | 19 | 1016 | 10 | SO 7.4 | |
| Ieri h: 23:10 | Sereno | 22 | -2 | 19 | 1015 | 10 | O 14.8 | |
| Ieri h: 22:55 | Sereno | 22 | 1 | 24 | 1015 | 10 | O 7.4 | |
| Ieri h: 22:30 | Sereno | 22 | 4 | 30 | 1015 | 10 | O/NO 11.1 | |
| Ieri h: 22:10 | Sereno | 22 | 4 | 30 | 1015 | 10 | N 5.5 | |
| Ieri h: 21:55 | Sereno | 23 | 5 | 31 | 1015 | 10 | NO 13 | |
| Ieri h: 21:30 | Sereno | 24 | 3 | 25 | 1015 | 10 | N/NO 16.7 | |
| Ieri h: 21:10 | Sereno | 25 | -2 | 16 | 1015 | 10 | N/NO 25.9 | |
| Ieri h: 20:55 | Sereno | 25 | -2 | 16 | 1015 | 10 | N/NO 24 | |
| Ieri h: 20:30 | Sereno | 26 | -1 | 16 | 1015 | 10 | NO 24 | |
| Ieri h: 20:10 | Sereno | 26 | -1 | 16 | 1014 | 10 | NO 22.2 | |
| Ieri h: 19:50 | Sereno | 26 | -4 | 13 | 1014 | 10 | NO 20.3 | |
| Ieri h: 19:30 | Sereno | 27 | -3 | 13 | 1014 | 10 | NO 18.5 | |
| Ieri h: 19:10 | Sereno | 27 | -3 | 13 | 1014 | 10 | NO 20.3 | |
| Ieri h: 18:55 | Sereno | 28 | -3 | 12 | 1014 | 10 | NO 20.3 | |
| Ieri h: 18:35 | Sereno | 29 | -5 | 10 | 1014 | 10 | NO 22.2 | |
| Ieri h: 18:10 | Sereno | 30 | -6 | 9 | 1014 | 10 | NO 22.2 | |
| Ieri h: 17:50 | Sereno | 30 | -6 | 9 | 1014 | 10 | NO 22.2 | |
| Ieri h: 17:30 | Sereno | 30 | -6 | 9 | 1014 | 10 | N/NO 22.2 | |
| Ieri h: 17:10 | Sereno | 30 | -6 | 9 | 1014 | 10 | N/NO 22.2 | |
| Ieri h: 16:50 | Sereno | 30 | -6 | 9 | 1014 | 10 | N/NO 22.2 | |
| Ieri h: 16:35 | Sereno | 30 | -6 | 9 | 1014 | 10 | N/NO 20.3 | |
| Ieri h: 16:10 | Sereno | 30 | -6 | 9 | 1014 | 10 | NO 16.7 | |
| Ieri h: 15:50 | Sereno | 30 | -6 | 9 | 1015 | 10 | N/NO 18.5 | |
| Ieri h: 15:30 | Sereno | 29 | -6 | 9 | 1015 | 10 | N/NO 18.5 | |
| Ieri h: 15:10 | Sereno | 29 | -5 | 10 | 1016 | 10 | N/NO 11.1 | |
| Ieri h: 14:50 | Sereno | 28 | -5 | 11 | 1016 | 10 | N 7.4 | |
| Ieri h: 14:30 | Sereno | 28 | -4 | 12 | 1016 | 10 | N 13 | |
| Ieri h: 14:10 | Sereno | 28 | -4 | 12 | 1017 | 10 | N 9.3 | |
| Ieri h: 13:50 | Sereno | 28 | -3 | 12 | 1017 | 10 | N/NO 16.7 | |
| Ieri h: 13:30 | Sereno | 27 | -3 | 13 | 1017 | 10 | N 11.1 | |
| Ieri h: 13:10 | Sereno | 27 | -3 | 13 | 1017 | 10 | N 9.3 | |
| Ieri h: 12:50 | Sereno | 26 | -3 | 14 | 1018 | 10 | N 7.4 | |



